LIBF/FOG METAR and TAF weather

Enter ICAO airport designator
Station Type Date Time Source
LIBF METAR 2021/10/22 15:50 UTC NOAA

LIBF 221550Z 24007KT 200V270 CAVOK 22/15 Q1016


Station Type Date Time Source
LIBF Decoded METAR 2021/10/22 15:50 UTC NOAA

Station name not available
Oct 22, 2021 - 11:50 AM EDT / 2021.10.22 1550 UTC
Wind: from the WSW (240 degrees) at 8 MPH (7 KT) (direction variable):0
Visibility: greater than 7 mile(s):0
Temperature: 71 F (22 C)
Dew Point: 59 F (15 C)
Relative Humidity: 64%
Pressure (altimeter): 30.00 in. Hg (1016 hPa)
ob: LIBF 221550Z 24007KT 200V270 CAVOK 22/15 Q1016
cycle: 16

Station Type Date Time Source
LIBF TAF 2021/10/22 12:00 UTC NOAA

TAF LIBF 221100Z 2212/2312 23013KT 9999 FEW050
TEMPO 2213/2219 RA
BECMG 2216/2218 VRB05KT
BECMG 2307/2309 34012KT

Example: see airport list